createdAt,value
2022-08-08T00:03:33.514Z,0.30
2022-08-08T00:08:58.709Z,0.20
2022-08-08T00:14:48.710Z,0.32
2022-08-08T00:19:51.349Z,0.50
2022-08-08T00:25:01.635Z,0.28
2022-08-08T00:30:11.419Z,0.38
2022-08-08T00:35:29.262Z,0.30
2022-08-08T00:46:21.938Z,0.20
2022-08-08T00:51:39.104Z,0.20
2022-08-08T00:57:29.703Z,0.20
2022-08-08T01:03:59.988Z,0.20
2022-08-08T01:08:52.187Z,0.20
2022-08-08T01:14:16.250Z,0.20
2022-08-08T01:20:01.465Z,0.10
2022-08-08T01:25:26.356Z,0.50
2022-08-08T01:30:59.880Z,0.20
2022-08-08T01:36:23.496Z,0.20
2022-08-08T01:41:34.333Z,0.20
2022-08-08T01:46:47.485Z,0.50
2022-08-08T01:52:43.415Z,0.30
2022-08-08T01:58:11.261Z,0.28
2022-08-08T02:03:54.630Z,0.20
2022-08-08T02:09:16.293Z,0.30
2022-08-08T02:14:55.999Z,0.22
2022-08-08T02:20:15.883Z,0.30
2022-08-08T02:25:47.459Z,0.30
2022-08-08T02:31:59.199Z,0.28
2022-08-08T02:37:02.367Z,0.30
2022-08-08T02:42:38.021Z,0.10
2022-08-08T02:48:25.855Z,0.40
2022-08-08T02:53:57.755Z,0.20
2022-08-08T02:59:57.174Z,0.20
2022-08-08T03:05:20.805Z,0.30
2022-08-08T03:10:44.362Z,0.40
2022-08-08T03:16:35.192Z,0.30
2022-08-08T03:21:54.793Z,0.30
2022-08-08T03:27:12.686Z,0.30
2022-08-08T03:32:34.137Z,0.40
2022-08-08T03:38:53.207Z,0.50
2022-08-08T03:42:58.613Z,0.20
2022-08-08T03:48:21.088Z,0.20
2022-08-08T03:53:47.410Z,0.30
2022-08-08T03:58:50.834Z,0.43
2022-08-08T04:03:58.723Z,0.20
2022-08-08T04:09:06.790Z,0.47
2022-08-08T04:14:34.566Z,0.30
2022-08-08T04:19:36.572Z,0.55
2022-08-08T04:24:38.315Z,0.57
2022-08-08T04:29:55.402Z,0.30
2022-08-08T04:35:02.846Z,0.30
2022-08-08T04:40:10.502Z,0.45
2022-08-08T04:45:14.501Z,0.40
2022-08-08T04:50:24.326Z,0.50
2022-08-08T04:55:47.552Z,0.30
2022-08-08T05:00:51.815Z,0.57
2022-08-08T05:05:53.942Z,0.47
2022-08-08T05:10:57.000Z,0.45
2022-08-08T05:16:48.341Z,0.40
2022-08-08T05:21:20.995Z,0.57
2022-08-08T05:26:27.409Z,0.40
2022-08-08T05:32:03.371Z,0.22
2022-08-08T05:36:53.810Z,0.50
2022-08-08T05:41:59.478Z,0.30
2022-08-08T05:47:03.259Z,0.50
2022-08-08T05:52:06.285Z,0.68
2022-08-08T05:57:16.235Z,0.60
2022-08-08T06:02:56.798Z,0.40
2022-08-08T06:08:02.706Z,0.53
2022-08-08T06:18:21.098Z,0.40
2022-08-08T06:23:53.281Z,0.50
2022-08-08T06:29:02.396Z,0.30
2022-08-08T06:34:27.507Z,0.40
2022-08-08T06:39:34.095Z,0.50
2022-08-08T06:44:42.426Z,0.50
2022-08-08T06:49:55.097Z,0.32
2022-08-08T06:54:59.627Z,0.55
2022-08-08T07:05:20.510Z,0.30
2022-08-08T07:10:33.125Z,0.50
2022-08-08T07:16:04.289Z,0.38
2022-08-08T07:21:09.917Z,0.20
2022-08-08T07:26:32.972Z,0.30
2022-08-08T07:31:37.183Z,0.25
2022-08-08T07:36:48.003Z,0.40
2022-08-08T07:42:04.182Z,0.32
2022-08-08T07:47:06.581Z,0.22
2022-08-08T07:52:13.049Z,0.40
2022-08-08T07:57:48.464Z,0.32
2022-08-08T08:03:07.130Z,0.22
2022-08-08T08:08:27.530Z,0.40
2022-08-08T08:13:42.826Z,0.50
2022-08-08T08:19:07.362Z,0.28
2022-08-08T08:24:09.576Z,0.30
2022-08-08T08:29:16.551Z,0.30
2022-08-08T08:34:21.237Z,0.35
2022-08-08T08:39:23.671Z,0.55
2022-08-08T08:44:28.975Z,0.40
2022-08-08T08:49:34.057Z,0.20
2022-08-08T08:54:36.251Z,0.20
2022-08-08T08:59:59.548Z,0.20
2022-08-08T09:05:04.126Z,0.20
2022-08-08T09:10:05.910Z,0.30
2022-08-08T09:15:08.133Z,0.20
2022-08-08T09:25:36.292Z,0.15
2022-08-08T09:31:12.903Z,0.77
2022-08-08T09:36:22.487Z,0.20
2022-08-08T09:41:54.730Z,0.50
2022-08-08T09:48:02.323Z,0.40
2022-08-08T09:52:54.130Z,0.57
2022-08-08T09:58:08.344Z,0.60
2022-08-08T10:03:19.785Z,0.30
2022-08-08T10:08:22.514Z,0.38
2022-08-08T10:13:32.152Z,0.30
2022-08-08T10:18:37.030Z,0.30
2022-08-08T10:23:44.019Z,0.28
2022-08-08T10:29:00.313Z,0.30
2022-08-08T10:34:19.344Z,0.20
2022-08-08T10:39:31.401Z,0.30
2022-08-08T10:44:40.090Z,0.20
2022-08-08T10:50:01.250Z,0.30
2022-08-08T10:55:39.954Z,0.13
2022-08-08T11:00:48.292Z,0.30
2022-08-08T11:06:00.874Z,0.10
2022-08-08T11:11:08.233Z,0.20
2022-08-08T11:16:32.868Z,0.20
2022-08-08T11:21:40.983Z,0.10
2022-08-08T11:26:56.555Z,0.20
2022-08-08T11:32:00.588Z,0.30
2022-08-08T11:37:15.024Z,0.13
2022-08-08T11:42:18.194Z,0.17
2022-08-08T11:47:39.680Z,0.20
2022-08-08T11:52:52.230Z,0.30
2022-08-08T11:58:21.796Z,0.10
2022-08-08T12:03:30.500Z,0.10
2022-08-08T12:08:34.150Z,0.10
2022-08-08T12:14:03.063Z,0.10
2022-08-08T12:18:57.261Z,0.20
2022-08-08T12:24:07.522Z,0.20
2022-08-08T12:29:39.964Z,0.40
2022-08-08T12:34:50.228Z,0.20
2022-08-08T12:40:01.159Z,0.10
2022-08-08T12:45:53.615Z,0.20
2022-08-08T12:50:39.198Z,0.03
2022-08-08T12:56:06.501Z,0.17
2022-08-08T13:01:13.920Z,0.20
2022-08-08T13:06:20.159Z,0.20
2022-08-08T13:12:19.628Z,0.25
2022-08-08T13:16:54.975Z,0.20
2022-08-08T13:22:05.218Z,0.20
2022-08-08T13:27:12.284Z,0.10
2022-08-08T13:32:13.967Z,0.20
2022-08-08T13:37:19.536Z,0.30
2022-08-08T13:42:30.529Z,0.10
2022-08-08T13:47:32.359Z,0.10
2022-08-08T13:52:45.718Z,0.10
2022-08-08T13:58:07.785Z,0.20
2022-08-08T14:03:53.613Z,0.50
2022-08-08T14:08:34.712Z,0.20
2022-08-08T14:13:38.541Z,0.30
2022-08-08T14:19:03.058Z,0.10
2022-08-08T14:24:13.229Z,0.10
2022-08-08T14:29:28.103Z,0.20
2022-08-08T14:34:32.256Z,0.20
2022-08-08T14:39:47.829Z,0.20
2022-08-08T14:45:00.365Z,0.20
2022-08-08T14:50:16.119Z,0.10
2022-08-08T15:00:44.833Z,0.30
2022-08-08T15:05:54.687Z,0.15
2022-08-08T15:11:00.651Z,0.20
2022-08-08T15:16:03.695Z,0.10
2022-08-08T15:21:07.119Z,0.20
2022-08-08T15:26:12.869Z,0.22
2022-08-08T15:31:25.997Z,0.38
2022-08-08T15:36:36.165Z,0.20
2022-08-08T15:41:43.545Z,0.20
2022-08-08T15:46:50.748Z,0.38
2022-08-08T15:51:54.649Z,0.20
2022-08-08T15:56:56.383Z,0.20
2022-08-08T16:02:00.543Z,0.33
2022-08-08T16:07:02.989Z,0.40
2022-08-08T16:13:20.624Z,0.20
2022-08-08T16:17:57.494Z,0.10
2022-08-08T16:22:50.207Z,0.60
2022-08-08T16:27:57.149Z,0.30
2022-08-08T16:32:59.542Z,0.20
2022-08-08T16:38:03.011Z,0.40
2022-08-08T16:43:05.600Z,0.20
2022-08-08T16:48:06.996Z,0.30
2022-08-08T16:55:23.558Z,0.63
2022-08-08T16:58:34.770Z,0.43
2022-08-08T17:04:01.340Z,0.25
2022-08-08T17:08:57.734Z,0.30
2022-08-08T17:14:01.652Z,0.17
2022-08-08T17:19:03.401Z,0.30
2022-08-08T17:24:21.946Z,0.20
2022-08-08T17:29:27.466Z,0.50
2022-08-08T17:34:49.303Z,0.25
2022-08-08T17:40:05.711Z,0.20
2022-08-08T17:45:14.278Z,0.30
2022-08-08T17:50:26.440Z,0.30
2022-08-08T17:56:07.780Z,0.50
2022-08-08T18:00:56.326Z,0.77
2022-08-08T18:06:00.294Z,1.48
2022-08-08T18:11:16.483Z,2.38
2022-08-08T18:16:23.269Z,2.42
2022-08-08T18:21:58.804Z,0.47
2022-08-08T18:26:56.750Z,0.20
2022-08-08T18:31:59.177Z,0.35
2022-08-08T18:37:05.051Z,0.45
2022-08-08T18:42:15.840Z,0.50
2022-08-08T18:47:18.260Z,0.60
2022-08-08T18:52:22.565Z,0.40
2022-08-08T18:57:24.352Z,0.63
2022-08-08T19:02:29.674Z,0.40
2022-08-08T19:07:33.517Z,0.43
2022-08-08T19:12:39.685Z,0.55
2022-08-08T19:18:31.274Z,0.50
2022-08-08T19:23:08.598Z,0.47
2022-08-08T19:28:19.501Z,0.50
2022-08-08T19:33:24.555Z,0.55
2022-08-08T19:38:27.123Z,0.90
2022-08-08T19:43:30.295Z,0.83
2022-08-08T19:48:33.116Z,0.50
2022-08-08T19:53:53.231Z,0.40
2022-08-08T19:58:55.665Z,0.45
2022-08-08T20:04:01.243Z,0.50
2022-08-08T20:09:08.734Z,0.52
2022-08-08T20:14:32.921Z,0.98
2022-08-08T20:19:34.246Z,0.88
2022-08-08T20:24:40.752Z,1.25
2022-08-08T20:29:45.361Z,1.13
2022-08-08T20:35:01.067Z,0.63
2022-08-08T20:40:05.471Z,0.60
2022-08-08T20:45:08.500Z,0.80
2022-08-08T20:50:10.814Z,0.85
2022-08-08T20:55:22.857Z,0.80
2022-08-08T21:00:27.645Z,0.60
2022-08-08T21:05:31.636Z,0.70
2022-08-08T21:10:33.343Z,0.75
2022-08-08T21:16:06.113Z,0.70
2022-08-08T21:20:57.771Z,0.60
2022-08-08T21:25:59.208Z,0.57
2022-08-08T21:31:00.593Z,0.65
2022-08-08T21:36:28.595Z,0.65
2022-08-08T21:41:43.182Z,0.88
2022-08-08T21:48:03.730Z,0.93
2022-08-08T21:54:36.376Z,0.77
2022-08-08T21:57:43.071Z,0.90
2022-08-08T22:02:57.540Z,0.93
2022-08-08T22:08:03.225Z,1.50
2022-08-08T22:13:18.396Z,1.08
2022-08-08T22:18:20.951Z,1.10
2022-08-08T22:23:25.470Z,1.20
2022-08-08T22:29:04.218Z,1.27
2022-08-08T22:34:13.698Z,1.40
2022-08-08T22:39:19.592Z,1.10
2022-08-08T22:44:21.911Z,1.20
2022-08-08T22:49:25.282Z,1.20
2022-08-08T22:54:34.393Z,1.20
2022-08-08T22:59:59.055Z,1.02
2022-08-08T23:05:04.789Z,1.30
2022-08-08T23:10:08.643Z,1.40
2022-08-08T23:16:39.772Z,1.20
2022-08-08T23:20:32.507Z,1.38
2022-08-08T23:25:37.288Z,0.95
2022-08-08T23:30:49.937Z,1.08
2022-08-08T23:35:58.866Z,1.35
2022-08-08T23:41:12.127Z,1.33
2022-08-08T23:49:05.194Z,1.55
2022-08-08T23:51:42.083Z,1.25
2022-08-08T23:57:01.582Z,1.20
